sensor_id;sensor_type;location;lat;lon;timestamp;temperature;humidity
19000;DHT22;9633;50.980;13.850;2023-05-10T00:00:09;13.10;73.10
19000;DHT22;9633;50.980;13.850;2023-05-10T00:01:45;13.10;73.00
19000;DHT22;9633;50.980;13.850;2023-05-10T00:03:18;13.00;72.50
19000;DHT22;9633;50.980;13.850;2023-05-10T00:04:52;13.00;72.60
19000;DHT22;9633;50.980;13.850;2023-05-10T00:06:25;13.00;71.20
19000;DHT22;9633;50.980;13.850;2023-05-10T00:07:59;13.10;71.90
19000;DHT22;9633;50.980;13.850;2023-05-10T00:09:32;13.10;71.00
19000;DHT22;9633;50.980;13.850;2023-05-10T00:11:05;13.10;70.60
19000;DHT22;9633;50.980;13.850;2023-05-10T00:12:38;13.00;71.60
19000;DHT22;9633;50.980;13.850;2023-05-10T00:14:12;13.00;71.50
19000;DHT22;9633;50.980;13.850;2023-05-10T00:15:45;13.00;71.20
19000;DHT22;9633;50.980;13.850;2023-05-10T00:17:18;13.10;71.80
19000;DHT22;9633;50.980;13.850;2023-05-10T00:18:50;13.00;70.90
19000;DHT22;9633;50.980;13.850;2023-05-10T00:20:24;13.00;70.60
19000;DHT22;9633;50.980;13.850;2023-05-10T00:21:57;13.00;70.60
19000;DHT22;9633;50.980;13.850;2023-05-10T00:23:30;13.00;70.50
19000;DHT22;9633;50.980;13.850;2023-05-10T00:25:02;12.90;70.80
19000;DHT22;9633;50.980;13.850;2023-05-10T00:26:35;12.90;70.30
19000;DHT22;9633;50.980;13.850;2023-05-10T00:28:09;12.80;70.10
19000;DHT22;9633;50.980;13.850;2023-05-10T00:29:43;12.80;71.20
19000;DHT22;9633;50.980;13.850;2023-05-10T00:31:16;12.80;69.60
19000;DHT22;9633;50.980;13.850;2023-05-10T00:32:49;12.90;69.70
19000;DHT22;9633;50.980;13.850;2023-05-10T00:34:23;12.90;69.80
19000;DHT22;9633;50.980;13.850;2023-05-10T00:35:56;12.90;69.90
19000;DHT22;9633;50.980;13.850;2023-05-10T00:37:29;12.80;69.20
19000;DHT22;9633;50.980;13.850;2023-05-10T00:39:01;12.80;69.30
19000;DHT22;9633;50.980;13.850;2023-05-10T00:40:35;12.80;69.30
19000;DHT22;9633;50.980;13.850;2023-05-10T00:42:10;12.70;68.60
19000;DHT22;9633;50.980;13.850;2023-05-10T00:43:43;12.70;68.80
19000;DHT22;9633;50.980;13.850;2023-05-10T00:45:18;12.80;68.30
19000;DHT22;9633;50.980;13.850;2023-05-10T00:46:51;12.80;68.40
19000;DHT22;9633;50.980;13.850;2023-05-10T00:48:24;12.70;68.70
19000;DHT22;9633;50.980;13.850;2023-05-10T00:49:57;12.70;67.00
19000;DHT22;9633;50.980;13.850;2023-05-10T00:51:32;12.70;68.70
19000;DHT22;9633;50.980;13.850;2023-05-10T00:53:05;12.70;68.70
19000;DHT22;9633;50.980;13.850;2023-05-10T00:54:37;12.60;70.00
19000;DHT22;9633;50.980;13.850;2023-05-10T00:56:11;12.60;69.90
19000;DHT22;9633;50.980;13.850;2023-05-10T00:57:44;12.60;69.80
19000;DHT22;9633;50.980;13.850;2023-05-10T00:59:17;12.60;69.00
19000;DHT22;9633;50.980;13.850;2023-05-10T01:00:52;12.60;69.10
19000;DHT22;9633;50.980;13.850;2023-05-10T01:02:25;12.60;69.40
19000;DHT22;9633;50.980;13.850;2023-05-10T01:04:01;12.60;69.00
19000;DHT22;9633;50.980;13.850;2023-05-10T01:05:35;12.50;69.30
19000;DHT22;9633;50.980;13.850;2023-05-10T01:07:07;12.50;69.10
19000;DHT22;9633;50.980;13.850;2023-05-10T01:08:41;12.50;66.80
19000;DHT22;9633;50.980;13.850;2023-05-10T01:10:14;12.50;68.20
19000;DHT22;9633;50.980;13.850;2023-05-10T01:11:47;12.40;69.10
19000;DHT22;9633;50.980;13.850;2023-05-10T01:13:30;12.40;69.00
19000;DHT22;9633;50.980;13.850;2023-05-10T01:15:06;12.40;67.80
19000;DHT22;9633;50.980;13.850;2023-05-10T01:16:42;12.40;68.20
19000;DHT22;9633;50.980;13.850;2023-05-10T01:18:20;12.40;67.60
19000;DHT22;9633;50.980;13.850;2023-05-10T01:19:54;12.30;67.40
19000;DHT22;9633;50.980;13.850;2023-05-10T01:21:31;12.20;68.10
19000;DHT22;9633;50.980;13.850;2023-05-10T01:23:16;12.20;65.70
19000;DHT22;9633;50.980;13.850;2023-05-10T01:27:30;12.10;66.80
19000;DHT22;9633;50.980;13.850;2023-05-10T01:29:14;12.10;65.80
19000;DHT22;9633;50.980;13.850;2023-05-10T01:31:08;12.10;65.00
19000;DHT22;9633;50.980;13.850;2023-05-10T01:32:52;12.10;65.60
19000;DHT22;9633;50.980;13.850;2023-05-10T01:34:32;12.10;65.80
19000;DHT22;9633;50.980;13.850;2023-05-10T01:36:16;12.10;64.00
19000;DHT22;9633;50.980;13.850;2023-05-10T01:38:04;12.10;65.60
19000;DHT22;9633;50.980;13.850;2023-05-10T01:39:45;12.10;64.50
19000;DHT22;9633;50.980;13.850;2023-05-10T01:41:27;12.10;64.80
19000;DHT22;9633;50.980;13.850;2023-05-10T01:43:02;12.00;65.00
19000;DHT22;9633;50.980;13.850;2023-05-10T01:44:40;12.00;65.00
19000;DHT22;9633;50.980;13.850;2023-05-10T01:46:17;12.00;63.70
19000;DHT22;9633;50.980;13.850;2023-05-10T01:47:58;11.90;64.60
19000;DHT22;9633;50.980;13.850;2023-05-10T01:49:39;11.90;64.20
19000;DHT22;9633;50.980;13.850;2023-05-10T01:51:13;11.90;65.30
19000;DHT22;9633;50.980;13.850;2023-05-10T01:52:53;11.80;65.60
19000;DHT22;9633;50.980;13.850;2023-05-10T01:54:28;11.80;65.30
19000;DHT22;9633;50.980;13.850;2023-05-10T01:56:02;11.70;63.70
19000;DHT22;9633;50.980;13.850;2023-05-10T01:57:39;11.70;62.80
19000;DHT22;9633;50.980;13.850;2023-05-10T01:59:17;11.70;61.60
19000;DHT22;9633;50.980;13.850;2023-05-10T02:00:52;11.70;61.80
19000;DHT22;9633;50.980;13.850;2023-05-10T02:02:27;11.70;61.40
19000;DHT22;9633;50.980;13.850;2023-05-10T02:04:02;11.70;61.50
19000;DHT22;9633;50.980;13.850;2023-05-10T02:05:36;11.70;61.30
19000;DHT22;9633;50.980;13.850;2023-05-10T02:07:10;11.70;63.30
19000;DHT22;9633;50.980;13.850;2023-05-10T02:08:44;11.60;63.60
19000;DHT22;9633;50.980;13.850;2023-05-10T02:10:18;11.60;63.40
19000;DHT22;9633;50.980;13.850;2023-05-10T02:11:53;11.50;62.60
19000;DHT22;9633;50.980;13.850;2023-05-10T02:13:27;11.50;62.70
19000;DHT22;9633;50.980;13.850;2023-05-10T02:15:04;11.50;61.00
19000;DHT22;9633;50.980;13.850;2023-05-10T02:16:38;11.50;59.60
19000;DHT22;9633;50.980;13.850;2023-05-10T02:18:13;11.40;60.00
19000;DHT22;9633;50.980;13.850;2023-05-10T02:19:49;11.50;60.00
19000;DHT22;9633;50.980;13.850;2023-05-10T02:21:23;11.40;60.00
19000;DHT22;9633;50.980;13.850;2023-05-10T02:22:57;11.40;57.40
19000;DHT22;9633;50.980;13.850;2023-05-10T02:24:30;11.40;57.30
19000;DHT22;9633;50.980;13.850;2023-05-10T02:26:05;11.40;56.90
19000;DHT22;9633;50.980;13.850;2023-05-10T02:27:41;11.40;57.30
19000;DHT22;9633;50.980;13.850;2023-05-10T02:29:15;11.40;55.80
19000;DHT22;9633;50.980;13.850;2023-05-10T02:30:50;11.30;55.80
19000;DHT22;9633;50.980;13.850;2023-05-10T02:32:24;11.30;54.30
19000;DHT22;9633;50.980;13.850;2023-05-10T02:33:59;11.20;55.30
19000;DHT22;9633;50.980;13.850;2023-05-10T02:35:35;11.10;55.80
19000;DHT22;9633;50.980;13.850;2023-05-10T02:37:09;11.10;55.60
19000;DHT22;9633;50.980;13.850;2023-05-10T02:38:42;11.00;55.00
19000;DHT22;9633;50.980;13.850;2023-05-10T02:40:16;11.00;55.50
19000;DHT22;9633;50.980;13.850;2023-05-10T02:41:52;11.00;55.60
19000;DHT22;9633;50.980;13.850;2023-05-10T02:43:25;10.90;55.00
19000;DHT22;9633;50.980;13.850;2023-05-10T02:45:01;10.90;54.50
19000;DHT22;9633;50.980;13.850;2023-05-10T02:46:34;10.90;54.80
19000;DHT22;9633;50.980;13.850;2023-05-10T02:48:08;10.90;54.30
19000;DHT22;9633;50.980;13.850;2023-05-10T02:49:43;10.90;54.90
19000;DHT22;9633;50.980;13.850;2023-05-10T02:51:18;10.90;54.40
19000;DHT22;9633;50.980;13.850;2023-05-10T02:52:55;11.00;53.20
19000;DHT22;9633;50.980;13.850;2023-05-10T02:54:33;11.00;53.20
19000;DHT22;9633;50.980;13.850;2023-05-10T02:56:12;11.00;53.30
19000;DHT22;9633;50.980;13.850;2023-05-10T02:57:50;11.00;51.20
19000;DHT22;9633;50.980;13.850;2023-05-10T02:59:24;11.00;51.00
19000;DHT22;9633;50.980;13.850;2023-05-10T03:00:57;11.00;52.20
19000;DHT22;9633;50.980;13.850;2023-05-10T03:02:31;11.00;52.10
19000;DHT22;9633;50.980;13.850;2023-05-10T03:04:04;10.90;52.90
19000;DHT22;9633;50.980;13.850;2023-05-10T03:05:38;10.90;54.60
19000;DHT22;9633;50.980;13.850;2023-05-10T03:07:13;10.90;55.00
19000;DHT22;9633;50.980;13.850;2023-05-10T03:08:46;10.90;54.30
19000;DHT22;9633;50.980;13.850;2023-05-10T03:10:21;11.00;53.50
19000;DHT22;9633;50.980;13.850;2023-05-10T03:12:00;11.00;53.60
19000;DHT22;9633;50.980;13.850;2023-05-10T03:13:42;10.90;54.30
19000;DHT22;9633;50.980;13.850;2023-05-10T03:15:22;11.00;56.20
19000;DHT22;9633;50.980;13.850;2023-05-10T03:17:02;11.00;53.50
19000;DHT22;9633;50.980;13.850;2023-05-10T03:18:42;11.00;55.80
19000;DHT22;9633;50.980;13.850;2023-05-10T03:20:22;11.00;53.70
19000;DHT22;9633;50.980;13.850;2023-05-10T03:21:59;10.90;53.30
19000;DHT22;9633;50.980;13.850;2023-05-10T03:23:45;10.90;54.40
19000;DHT22;9633;50.980;13.850;2023-05-10T03:25:21;10.90;52.80
19000;DHT22;9633;50.980;13.850;2023-05-10T03:26:56;10.80;54.50
19000;DHT22;9633;50.980;13.850;2023-05-10T03:28:30;10.80;52.60
19000;DHT22;9633;50.980;13.850;2023-05-10T03:30:06;10.80;53.90
19000;DHT22;9633;50.980;13.850;2023-05-10T03:31:40;10.80;54.20
19000;DHT22;9633;50.980;13.850;2023-05-10T03:33:14;10.80;54.00
19000;DHT22;9633;50.980;13.850;2023-05-10T03:34:49;10.90;54.70
19000;DHT22;9633;50.980;13.850;2023-05-10T03:36:22;10.90;53.60
19000;DHT22;9633;50.980;13.850;2023-05-10T03:37:56;10.90;53.70
19000;DHT22;9633;50.980;13.850;2023-05-10T03:39:29;10.80;53.90
19000;DHT22;9633;50.980;13.850;2023-05-10T03:41:04;10.80;54.80
19000;DHT22;9633;50.980;13.850;2023-05-10T03:42:37;10.90;54.90
19000;DHT22;9633;50.980;13.850;2023-05-10T03:44:10;10.80;54.50
19000;DHT22;9633;50.980;13.850;2023-05-10T03:45:43;10.90;53.80
19000;DHT22;9633;50.980;13.850;2023-05-10T03:47:15;10.90;54.30
19000;DHT22;9633;50.980;13.850;2023-05-10T03:48:48;11.00;52.80
19000;DHT22;9633;50.980;13.850;2023-05-10T03:50:22;11.00;53.30
19000;DHT22;9633;50.980;13.850;2023-05-10T03:51:55;11.00;53.40
19000;DHT22;9633;50.980;13.850;2023-05-10T03:53:27;11.00;53.80
19000;DHT22;9633;50.980;13.850;2023-05-10T03:55:02;11.00;54.40
19000;DHT22;9633;50.980;13.850;2023-05-10T03:56:35;11.00;54.60
19000;DHT22;9633;50.980;13.850;2023-05-10T03:58:10;11.10;52.20
19000;DHT22;9633;50.980;13.850;2023-05-10T03:59:43;11.20;52.20
19000;DHT22;9633;50.980;13.850;2023-05-10T04:01:17;11.20;49.80
19000;DHT22;9633;50.980;13.850;2023-05-10T04:02:51;11.20;49.10
19000;DHT22;9633;50.980;13.850;2023-05-10T04:04:24;11.30;48.70
19000;DHT22;9633;50.980;13.850;2023-05-10T04:05:59;11.30;47.70
19000;DHT22;9633;50.980;13.850;2023-05-10T04:07:32;11.30;46.90
19000;DHT22;9633;50.980;13.850;2023-05-10T04:09:05;11.40;47.40
19000;DHT22;9633;50.980;13.850;2023-05-10T04:10:39;11.40;47.10
19000;DHT22;9633;50.980;13.850;2023-05-10T04:12:12;11.50;46.10
19000;DHT22;9633;50.980;13.850;2023-05-10T04:13:45;11.50;46.00
19000;DHT22;9633;50.980;13.850;2023-05-10T04:15:19;11.50;45.20
19000;DHT22;9633;50.980;13.850;2023-05-10T04:16:52;11.50;45.30
19000;DHT22;9633;50.980;13.850;2023-05-10T04:18:25;11.60;45.30
19000;DHT22;9633;50.980;13.850;2023-05-10T04:19:58;11.60;43.70
19000;DHT22;9633;50.980;13.850;2023-05-10T04:21:31;11.60;43.30
19000;DHT22;9633;50.980;13.850;2023-05-10T04:23:03;11.70;43.60
19000;DHT22;9633;50.980;13.850;2023-05-10T04:24:36;11.70;43.10
19000;DHT22;9633;50.980;13.850;2023-05-10T04:26:10;11.70;42.30
19000;DHT22;9633;50.980;13.850;2023-05-10T04:27:43;11.80;42.10
19000;DHT22;9633;50.980;13.850;2023-05-10T04:29:16;11.80;41.60
19000;DHT22;9633;50.980;13.850;2023-05-10T04:30:49;11.80;41.50
19000;DHT22;9633;50.980;13.850;2023-05-10T04:32:22;11.90;42.00
19000;DHT22;9633;50.980;13.850;2023-05-10T04:33:55;12.00;41.80
19000;DHT22;9633;50.980;13.850;2023-05-10T04:35:28;12.00;42.50
19000;DHT22;9633;50.980;13.850;2023-05-10T04:37:01;12.10;41.80
19000;DHT22;9633;50.980;13.850;2023-05-10T04:38:34;12.10;41.60
19000;DHT22;9633;50.980;13.850;2023-05-10T04:40:08;12.20;41.40
19000;DHT22;9633;50.980;13.850;2023-05-10T04:41:43;12.20;41.60
19000;DHT22;9633;50.980;13.850;2023-05-10T04:43:16;12.30;40.10
19000;DHT22;9633;50.980;13.850;2023-05-10T04:44:49;12.40;39.90
19000;DHT22;9633;50.980;13.850;2023-05-10T04:46:23;12.40;38.00
19000;DHT22;9633;50.980;13.850;2023-05-10T04:47:56;12.40;38.60
19000;DHT22;9633;50.980;13.850;2023-05-10T04:49:30;12.50;37.90
19000;DHT22;9633;50.980;13.850;2023-05-10T04:51:03;12.50;39.00
19000;DHT22;9633;50.980;13.850;2023-05-10T04:52:38;12.60;38.90
19000;DHT22;9633;50.980;13.850;2023-05-10T04:54:11;12.60;40.20
19000;DHT22;9633;50.980;13.850;2023-05-10T04:55:43;12.70;38.10
19000;DHT22;9633;50.980;13.850;2023-05-10T04:57:17;12.70;38.80
19000;DHT22;9633;50.980;13.850;2023-05-10T04:58:51;12.80;38.80
19000;DHT22;9633;50.980;13.850;2023-05-10T05:00:24;12.80;37.70
19000;DHT22;9633;50.980;13.850;2023-05-10T05:01:57;12.90;38.00
19000;DHT22;9633;50.980;13.850;2023-05-10T05:03:30;12.90;38.00
19000;DHT22;9633;50.980;13.850;2023-05-10T05:05:05;12.90;38.50
19000;DHT22;9633;50.980;13.850;2023-05-10T05:06:38;13.00;38.20
19000;DHT22;9633;50.980;13.850;2023-05-10T05:08:11;13.00;38.40
19000;DHT22;9633;50.980;13.850;2023-05-10T05:09:45;13.10;37.20
19000;DHT22;9633;50.980;13.850;2023-05-10T05:11:18;13.10;37.80
19000;DHT22;9633;50.980;13.850;2023-05-10T05:12:52;13.20;37.50
19000;DHT22;9633;50.980;13.850;2023-05-10T05:14:25;13.30;38.10
19000;DHT22;9633;50.980;13.850;2023-05-10T05:16:00;13.30;37.60
19000;DHT22;9633;50.980;13.850;2023-05-10T05:17:34;13.40;38.60
19000;DHT22;9633;50.980;13.850;2023-05-10T05:19:07;13.40;39.10
19000;DHT22;9633;50.980;13.850;2023-05-10T05:20:40;13.50;38.90
19000;DHT22;9633;50.980;13.850;2023-05-10T05:22:13;13.60;38.60
19000;DHT22;9633;50.980;13.850;2023-05-10T05:23:47;13.70;38.70
19000;DHT22;9633;50.980;13.850;2023-05-10T05:25:21;13.80;37.90
19000;DHT22;9633;50.980;13.850;2023-05-10T05:26:54;13.80;38.40
19000;DHT22;9633;50.980;13.850;2023-05-10T05:28:28;13.90;38.00
19000;DHT22;9633;50.980;13.850;2023-05-10T05:30:05;14.00;36.90
19000;DHT22;9633;50.980;13.850;2023-05-10T05:31:39;13.90;36.20
19000;DHT22;9633;50.980;13.850;2023-05-10T05:33:13;14.00;36.00
19000;DHT22;9633;50.980;13.850;2023-05-10T05:34:47;14.10;36.90
19000;DHT22;9633;50.980;13.850;2023-05-10T05:36:19;14.10;37.30
19000;DHT22;9633;50.980;13.850;2023-05-10T05:37:52;14.20;38.30
19000;DHT22;9633;50.980;13.850;2023-05-10T05:39:25;14.20;38.50
19000;DHT22;9633;50.980;13.850;2023-05-10T05:40:58;14.40;38.30
19000;DHT22;9633;50.980;13.850;2023-05-10T05:42:32;14.90;37.60
19000;DHT22;9633;50.980;13.850;2023-05-10T05:44:06;15.90;37.10
19000;DHT22;9633;50.980;13.850;2023-05-10T05:45:39;17.00;41.10
19000;DHT22;9633;50.980;13.850;2023-05-10T05:47:12;17.90;43.70
19000;DHT22;9633;50.980;13.850;2023-05-10T05:48:45;18.70;45.60
19000;DHT22;9633;50.980;13.850;2023-05-10T05:50:19;18.80;47.20
19000;DHT22;9633;50.980;13.850;2023-05-10T05:51:52;18.80;48.70
19000;DHT22;9633;50.980;13.850;2023-05-10T05:53:25;19.30;51.70
19000;DHT22;9633;50.980;13.850;2023-05-10T05:54:58;19.60;50.90
19000;DHT22;9633;50.980;13.850;2023-05-10T05:56:31;19.50;51.80
19000;DHT22;9633;50.980;13.850;2023-05-10T05:58:05;19.70;53.50
19000;DHT22;9633;50.980;13.850;2023-05-10T05:59:39;19.70;56.00
19000;DHT22;9633;50.980;13.850;2023-05-10T06:01:15;19.90;55.00
19000;DHT22;9633;50.980;13.850;2023-05-10T06:02:48;20.00;56.20
19000;DHT22;9633;50.980;13.850;2023-05-10T06:04:22;20.20;57.50
19000;DHT22;9633;50.980;13.850;2023-05-10T06:05:55;20.40;56.40
19000;DHT22;9633;50.980;13.850;2023-05-10T06:07:28;20.40;57.40
19000;DHT22;9633;50.980;13.850;2023-05-10T06:09:01;19.90;57.70
19000;DHT22;9633;50.980;13.850;2023-05-10T06:10:34;19.70;57.40
19000;DHT22;9633;50.980;13.850;2023-05-10T06:12:07;20.20;59.10
19000;DHT22;9633;50.980;13.850;2023-05-10T06:13:40;20.80;58.40
19000;DHT22;9633;50.980;13.850;2023-05-10T06:15:15;21.30;61.30
19000;DHT22;9633;50.980;13.850;2023-05-10T06:16:49;21.50;59.90
19000;DHT22;9633;50.980;13.850;2023-05-10T06:18:22;20.90;61.10
19000;DHT22;9633;50.980;13.850;2023-05-10T06:19:55;21.00;61.50
19000;DHT22;9633;50.980;13.850;2023-05-10T06:21:28;21.40;62.80
19000;DHT22;9633;50.980;13.850;2023-05-10T06:23:01;21.60;64.10
19000;DHT22;9633;50.980;13.850;2023-05-10T06:24:34;22.00;64.10
19000;DHT22;9633;50.980;13.850;2023-05-10T06:26:08;21.70;64.20
19000;DHT22;9633;50.980;13.850;2023-05-10T06:27:41;21.20;64.00
19000;DHT22;9633;50.980;13.850;2023-05-10T06:29:16;21.30;65.30
19000;DHT22;9633;50.980;13.850;2023-05-10T06:30:50;21.90;62.60
19000;DHT22;9633;50.980;13.850;2023-05-10T06:32:24;21.90;63.90
19000;DHT22;9633;50.980;13.850;2023-05-10T06:33:57;21.40;63.10
19000;DHT22;9633;50.980;13.850;2023-05-10T06:35:30;21.70;64.80
19000;DHT22;9633;50.980;13.850;2023-05-10T06:37:05;22.30;64.50
19000;DHT22;9633;50.980;13.850;2023-05-10T06:38:38;22.90;64.30
19000;DHT22;9633;50.980;13.850;2023-05-10T06:40:11;22.70;64.60
19000;DHT22;9633;50.980;13.850;2023-05-10T06:41:44;23.00;64.60
19000;DHT22;9633;50.980;13.850;2023-05-10T06:43:17;23.30;64.60
19000;DHT22;9633;50.980;13.850;2023-05-10T06:44:50;22.90;66.50
19000;DHT22;9633;50.980;13.850;2023-05-10T06:46:25;22.70;67.90
19000;DHT22;9633;50.980;13.850;2023-05-10T06:47:58;22.90;68.90
19000;DHT22;9633;50.980;13.850;2023-05-10T06:49:31;22.20;70.70
19000;DHT22;9633;50.980;13.850;2023-05-10T06:51:05;22.40;68.30
19000;DHT22;9633;50.980;13.850;2023-05-10T06:52:38;23.00;70.00
19000;DHT22;9633;50.980;13.850;2023-05-10T06:54:11;23.20;67.80
19000;DHT22;9633;50.980;13.850;2023-05-10T06:55:44;23.60;70.40
19000;DHT22;9633;50.980;13.850;2023-05-10T06:57:18;24.10;69.80
19000;DHT22;9633;50.980;13.850;2023-05-10T06:59:02;23.70;69.10
19000;DHT22;9633;50.980;13.850;2023-05-10T07:00:35;23.20;68.90
19000;DHT22;9633;50.980;13.850;2023-05-10T07:02:13;23.00;70.00
19000;DHT22;9633;50.980;13.850;2023-05-10T07:03:48;22.80;72.40
19000;DHT22;9633;50.980;13.850;2023-05-10T07:05:21;22.80;70.50
19000;DHT22;9633;50.980;13.850;2023-05-10T07:06:54;22.80;68.70
19000;DHT22;9633;50.980;13.850;2023-05-10T07:08:28;22.80;67.60
19000;DHT22;9633;50.980;13.850;2023-05-10T07:10:02;22.40;74.00
19000;DHT22;9633;50.980;13.850;2023-05-10T07:11:35;22.70;73.20
19000;DHT22;9633;50.980;13.850;2023-05-10T07:13:09;23.60;70.50
19000;DHT22;9633;50.980;13.850;2023-05-10T07:14:42;24.00;69.40
19000;DHT22;9633;50.980;13.850;2023-05-10T07:16:16;24.10;68.90
19000;DHT22;9633;50.980;13.850;2023-05-10T07:17:50;23.80;67.80
19000;DHT22;9633;50.980;13.850;2023-05-10T07:19:24;23.50;68.00
19000;DHT22;9633;50.980;13.850;2023-05-10T07:20:58;23.70;67.10
19000;DHT22;9633;50.980;13.850;2023-05-10T07:22:31;23.70;70.10
19000;DHT22;9633;50.980;13.850;2023-05-10T07:24:04;24.40;69.60
19000;DHT22;9633;50.980;13.850;2023-05-10T07:25:37;24.10;70.00
19000;DHT22;9633;50.980;13.850;2023-05-10T07:27:11;23.80;70.60
19000;DHT22;9633;50.980;13.850;2023-05-10T07:28:44;23.70;71.90
19000;DHT22;9633;50.980;13.850;2023-05-10T07:30:17;23.70;70.50
19000;DHT22;9633;50.980;13.850;2023-05-10T07:31:51;24.00;73.20
19000;DHT22;9633;50.980;13.850;2023-05-10T07:33:29;24.40;33.90
19000;DHT22;9633;50.980;13.850;2023-05-10T07:35:02;24.70;34.60
19000;DHT22;9633;50.980;13.850;2023-05-10T07:36:36;24.70;33.90
19000;DHT22;9633;50.980;13.850;2023-05-10T07:38:09;24.70;34.50
19000;DHT22;9633;50.980;13.850;2023-05-10T07:39:43;23.70;33.00
19000;DHT22;9633;50.980;13.850;2023-05-10T07:41:16;23.80;34.10
19000;DHT22;9633;50.980;13.850;2023-05-10T07:42:49;23.60;35.40
19000;DHT22;9633;50.980;13.850;2023-05-10T07:44:22;24.10;34.70
19000;DHT22;9633;50.980;13.850;2023-05-10T07:45:56;24.30;34.90
19000;DHT22;9633;50.980;13.850;2023-05-10T07:47:29;24.30;34.90
19000;DHT22;9633;50.980;13.850;2023-05-10T07:49:04;24.00;37.20
19000;DHT22;9633;50.980;13.850;2023-05-10T07:50:37;24.00;32.60
19000;DHT22;9633;50.980;13.850;2023-05-10T07:52:10;23.60;34.30
19000;DHT22;9633;50.980;13.850;2023-05-10T07:53:43;23.40;32.50
19000;DHT22;9633;50.980;13.850;2023-05-10T07:55:18;23.10;33.20
19000;DHT22;9633;50.980;13.850;2023-05-10T07:56:52;22.70;35.40
19000;DHT22;9633;50.980;13.850;2023-05-10T07:58:26;23.10;33.60
19000;DHT22;9633;50.980;13.850;2023-05-10T07:59:59;22.70;34.90
19000;DHT22;9633;50.980;13.850;2023-05-10T08:01:44;22.20;33.40
19000;DHT22;9633;50.980;13.850;2023-05-10T08:03:17;22.20;34.00
19000;DHT22;9633;50.980;13.850;2023-05-10T08:04:52;22.00;34.60
19000;DHT22;9633;50.980;13.850;2023-05-10T08:06:25;22.40;33.80
19000;DHT22;9633;50.980;13.850;2023-05-10T08:07:59;23.30;32.50
19000;DHT22;9633;50.980;13.850;2023-05-10T08:09:33;23.00;32.40
19000;DHT22;9633;50.980;13.850;2023-05-10T08:11:06;22.40;34.60
19000;DHT22;9633;50.980;13.850;2023-05-10T08:12:39;22.60;33.20
19000;DHT22;9633;50.980;13.850;2023-05-10T08:14:12;22.90;35.00
19000;DHT22;9633;50.980;13.850;2023-05-10T08:15:45;23.00;33.30
19000;DHT22;9633;50.980;13.850;2023-05-10T08:17:19;23.20;33.70
19000;DHT22;9633;50.980;13.850;2023-05-10T08:18:54;23.00;33.70
19000;DHT22;9633;50.980;13.850;2023-05-10T08:20:29;23.30;33.00
19000;DHT22;9633;50.980;13.850;2023-05-10T08:22:02;23.30;33.80
19000;DHT22;9633;50.980;13.850;2023-05-10T08:23:35;23.20;33.50
19000;DHT22;9633;50.980;13.850;2023-05-10T08:25:08;22.50;32.50
19000;DHT22;9633;50.980;13.850;2023-05-10T08:26:42;22.20;34.20
19000;DHT22;9633;50.980;13.850;2023-05-10T08:28:15;22.50;73.60
19000;DHT22;9633;50.980;13.850;2023-05-10T08:29:48;22.00;68.40
19000;DHT22;9633;50.980;13.850;2023-05-10T08:31:21;21.90;69.30
19000;DHT22;9633;50.980;13.850;2023-05-10T08:32:54;22.00;72.20
19000;DHT22;9633;50.980;13.850;2023-05-10T08:34:28;22.20;68.30
19000;DHT22;9633;50.980;13.850;2023-05-10T08:36:04;22.10;67.40
19000;DHT22;9633;50.980;13.850;2023-05-10T08:37:37;21.90;68.60
19000;DHT22;9633;50.980;13.850;2023-05-10T08:39:10;22.00;69.80
19000;DHT22;9633;50.980;13.850;2023-05-10T08:41:02;22.20;66.70
19000;DHT22;9633;50.980;13.850;2023-05-10T08:42:39;22.00;69.00
19000;DHT22;9633;50.980;13.850;2023-05-10T08:44:13;22.00;67.10
19000;DHT22;9633;50.980;13.850;2023-05-10T08:45:46;22.10;65.30
19000;DHT22;9633;50.980;13.850;2023-05-10T08:47:20;21.90;66.70
19000;DHT22;9633;50.980;13.850;2023-05-10T08:48:54;22.00;69.00
19000;DHT22;9633;50.980;13.850;2023-05-10T08:50:29;22.00;68.30
19000;DHT22;9633;50.980;13.850;2023-05-10T08:52:05;22.10;69.80
19000;DHT22;9633;50.980;13.850;2023-05-10T08:53:40;22.40;67.50
19000;DHT22;9633;50.980;13.850;2023-05-10T08:55:13;22.70;68.40
19000;DHT22;9633;50.980;13.850;2023-05-10T08:56:47;23.00;69.50
19000;DHT22;9633;50.980;13.850;2023-05-10T08:58:20;22.90;69.00
19000;DHT22;9633;50.980;13.850;2023-05-10T08:59:54;23.50;74.50
19000;DHT22;9633;50.980;13.850;2023-05-10T09:01:27;23.50;35.50
19000;DHT22;9633;50.980;13.850;2023-05-10T09:03:02;22.80;70.50
19000;DHT22;9633;50.980;13.850;2023-05-10T09:04:36;23.00;77.40
19000;DHT22;9633;50.980;13.850;2023-05-10T09:06:09;23.30;33.90
19000;DHT22;9633;50.980;13.850;2023-05-10T09:07:46;23.40;34.60
19000;DHT22;9633;50.980;13.850;2023-05-10T09:09:19;23.70;33.90
19000;DHT22;9633;50.980;13.850;2023-05-10T09:10:54;24.00;35.70
19000;DHT22;9633;50.980;13.850;2023-05-10T09:12:27;23.90;33.50
19000;DHT22;9633;50.980;13.850;2023-05-10T09:14:01;23.50;35.80
19000;DHT22;9633;50.980;13.850;2023-05-10T09:15:34;23.60;35.30
19000;DHT22;9633;50.980;13.850;2023-05-10T09:17:07;22.70;36.20
19000;DHT22;9633;50.980;13.850;2023-05-10T09:18:40;23.40;37.60
19000;DHT22;9633;50.980;13.850;2023-05-10T09:20:14;23.60;36.90
19000;DHT22;9633;50.980;13.850;2023-05-10T09:21:49;23.10;35.80
19000;DHT22;9633;50.980;13.850;2023-05-10T09:23:23;22.90;37.30
19000;DHT22;9633;50.980;13.850;2023-05-10T09:25:07;23.00;36.40
19000;DHT22;9633;50.980;13.850;2023-05-10T09:26:46;23.40;34.80
19000;DHT22;9633;50.980;13.850;2023-05-10T09:28:20;23.70;36.10
19000;DHT22;9633;50.980;13.850;2023-05-10T09:29:53;23.70;32.80
19000;DHT22;9633;50.980;13.850;2023-05-10T09:31:44;23.60;34.90
19000;DHT22;9633;50.980;13.850;2023-05-10T09:33:18;23.90;32.60
19000;DHT22;9633;50.980;13.850;2023-05-10T09:34:51;23.80;34.30
19000;DHT22;9633;50.980;13.850;2023-05-10T09:36:24;24.20;33.40
19000;DHT22;9633;50.980;13.850;2023-05-10T09:38:00;24.20;35.10
19000;DHT22;9633;50.980;13.850;2023-05-10T09:39:36;24.40;34.50
19000;DHT22;9633;50.980;13.850;2023-05-10T09:41:16;22.70;32.60
19000;DHT22;9633;50.980;13.850;2023-05-10T09:42:53;23.10;32.60
19000;DHT22;9633;50.980;13.850;2023-05-10T09:44:27;23.20;33.50
19000;DHT22;9633;50.980;13.850;2023-05-10T09:46:08;23.70;32.60
19000;DHT22;9633;50.980;13.850;2023-05-10T09:47:41;24.20;33.80
19000;DHT22;9633;50.980;13.850;2023-05-10T09:49:15;24.40;33.00
19000;DHT22;9633;50.980;13.850;2023-05-10T09:50:56;24.30;36.00
19000;DHT22;9633;50.980;13.850;2023-05-10T09:52:30;23.30;34.20
19000;DHT22;9633;50.980;13.850;2023-05-10T09:54:10;23.50;37.90
19000;DHT22;9633;50.980;13.850;2023-05-10T09:55:46;23.60;39.30
19000;DHT22;9633;50.980;13.850;2023-05-10T09:57:22;23.70;38.80
19000;DHT22;9633;50.980;13.850;2023-05-10T09:59:02;24.10;40.50